sensor_id;sensor_type;location;lat;lon;timestamp;P1;durP1;ratioP1;P2;durP2;ratioP2
1164;SDS011;571;50.930;6.926;2024-03-17T03:46:49;10.30;;;8.13;;
1164;SDS011;571;50.930;6.926;2024-03-17T03:49:17;10.10;;;8.13;;
1164;SDS011;571;50.930;6.926;2024-03-17T03:51:44;8.73;;;6.87;;
1164;SDS011;571;50.930;6.926;2024-03-17T03:54:11;11.13;;;9.17;;
1164;SDS011;571;50.930;6.926;2024-03-17T03:56:38;8.57;;;7.70;;
1164;SDS011;571;50.930;6.926;2024-03-17T03:59:04;10.33;;;8.73;;
1164;SDS011;571;50.930;6.926;2024-03-17T04:01:31;10.03;;;8.30;;
1164;SDS011;571;50.930;6.926;2024-03-17T04:03:59;9.07;;;8.13;;
1164;SDS011;571;50.930;6.926;2024-03-17T04:06:28;9.73;;;7.70;;
1164;SDS011;571;50.930;6.926;2024-03-17T04:08:55;8.97;;;7.70;;
1164;SDS011;571;50.930;6.926;2024-03-17T04:11:22;8.90;;;7.67;;
1164;SDS011;571;50.930;6.926;2024-03-17T04:13:48;9.33;;;7.10;;
1164;SDS011;571;50.930;6.926;2024-03-17T04:16:16;10.53;;;7.70;;
1164;SDS011;571;50.930;6.926;2024-03-17T04:18:43;11.43;;;8.07;;
1164;SDS011;571;50.930;6.926;2024-03-17T04:21:11;8.40;;;6.87;;
1164;SDS011;571;50.930;6.926;2024-03-17T04:23:37;12.00;;;8.03;;
1164;SDS011;571;50.930;6.926;2024-03-17T04:26:04;10.00;;;7.90;;
1164;SDS011;571;50.930;6.926;2024-03-17T04:28:32;13.63;;;8.50;;
1164;SDS011;571;50.930;6.926;2024-03-17T04:31:04;10.23;;;7.80;;
1164;SDS011;571;50.930;6.926;2024-03-17T04:33:31;12.00;;;9.00;;
1164;SDS011;571;50.930;6.926;2024-03-17T04:35:58;9.73;;;8.07;;
1164;SDS011;571;50.930;6.926;2024-03-17T04:38:27;10.57;;;9.30;;
1164;SDS011;571;50.930;6.926;2024-03-17T04:40:54;11.27;;;8.40;;
1164;SDS011;571;50.930;6.926;2024-03-17T04:43:29;9.20;;;8.30;;
1164;SDS011;571;50.930;6.926;2024-03-17T04:46:00;11.70;;;8.47;;
1164;SDS011;571;50.930;6.926;2024-03-17T04:48:29;13.70;;;7.50;;
1164;SDS011;571;50.930;6.926;2024-03-17T04:50:56;10.70;;;8.43;;
1164;SDS011;571;50.930;6.926;2024-03-17T04:53:23;17.33;;;8.07;;
1164;SDS011;571;50.930;6.926;2024-03-17T04:55:58;9.00;;;6.93;;
1164;SDS011;571;50.930;6.926;2024-03-17T04:58:26;10.60;;;7.80;;
1164;SDS011;571;50.930;6.926;2024-03-17T05:00:53;10.20;;;7.57;;
1164;SDS011;571;50.930;6.926;2024-03-17T05:03:20;10.27;;;7.43;;
1164;SDS011;571;50.930;6.926;2024-03-17T05:05:47;9.87;;;8.77;;
1164;SDS011;571;50.930;6.926;2024-03-17T05:08:14;11.13;;;7.40;;
1164;SDS011;571;50.930;6.926;2024-03-17T05:10:41;10.63;;;7.80;;
1164;SDS011;571;50.930;6.926;2024-03-17T05:13:09;12.27;;;7.47;;
1164;SDS011;571;50.930;6.926;2024-03-17T05:15:36;8.07;;;7.27;;
1164;SDS011;571;50.930;6.926;2024-03-17T05:18:03;8.00;;;7.20;;
1164;SDS011;571;50.930;6.926;2024-03-17T05:20:31;8.13;;;7.33;;
1164;SDS011;571;50.930;6.926;2024-03-17T05:22:57;9.30;;;7.50;;
1164;SDS011;571;50.930;6.926;2024-03-17T05:25:24;10.97;;;6.87;;
1164;SDS011;571;50.930;6.926;2024-03-17T05:27:51;8.90;;;7.47;;
1164;SDS011;571;50.930;6.926;2024-03-17T05:30:19;9.83;;;8.20;;
1164;SDS011;571;50.930;6.926;2024-03-17T05:32:46;8.70;;;7.80;;
1164;SDS011;571;50.930;6.926;2024-03-17T05:35:13;8.97;;;7.47;;
1164;SDS011;571;50.930;6.926;2024-03-17T05:37:40;8.07;;;7.37;;
1164;SDS011;571;50.930;6.926;2024-03-17T05:40:07;9.93;;;7.63;;
1164;SDS011;571;50.930;6.926;2024-03-17T05:42:37;10.40;;;7.90;;
1164;SDS011;571;50.930;6.926;2024-03-17T05:45:07;8.00;;;6.90;;
1164;SDS011;571;50.930;6.926;2024-03-17T05:47:37;16.53;;;7.63;;
1164;SDS011;571;50.930;6.926;2024-03-17T05:50:06;10.03;;;6.83;;
1164;SDS011;571;50.930;6.926;2024-03-17T05:52:34;8.57;;;6.40;;
1164;SDS011;571;50.930;6.926;2024-03-17T05:55:01;10.10;;;7.60;;
1164;SDS011;571;50.930;6.926;2024-03-17T05:57:27;7.80;;;6.97;;
1164;SDS011;571;50.930;6.926;2024-03-17T05:59:54;8.10;;;7.10;;
1164;SDS011;571;50.930;6.926;2024-03-17T06:02:21;8.70;;;6.80;;
1164;SDS011;571;50.930;6.926;2024-03-17T06:04:49;9.60;;;7.70;;
1164;SDS011;571;50.930;6.926;2024-03-17T06:07:17;8.30;;;7.40;;
1164;SDS011;571;50.930;6.926;2024-03-17T06:09:44;8.67;;;6.97;;
1164;SDS011;571;50.930;6.926;2024-03-17T06:12:12;8.17;;;6.77;;
1164;SDS011;571;50.930;6.926;2024-03-17T06:14:39;7.67;;;6.87;;
1164;SDS011;571;50.930;6.926;2024-03-17T06:17:06;8.40;;;7.50;;
1164;SDS011;571;50.930;6.926;2024-03-17T06:19:33;9.60;;;8.00;;
1164;SDS011;571;50.930;6.926;2024-03-17T06:22:01;9.40;;;7.70;;
1164;SDS011;571;50.930;6.926;2024-03-17T06:24:30;11.83;;;7.60;;
1164;SDS011;571;50.930;6.926;2024-03-17T06:26:57;14.03;;;8.10;;
1164;SDS011;571;50.930;6.926;2024-03-17T06:29:24;8.73;;;6.60;;
1164;SDS011;571;50.930;6.926;2024-03-17T06:31:50;9.80;;;7.20;;
1164;SDS011;571;50.930;6.926;2024-03-17T06:34:17;8.10;;;7.30;;
1164;SDS011;571;50.930;6.926;2024-03-17T06:36:44;13.20;;;8.00;;
1164;SDS011;571;50.930;6.926;2024-03-17T06:39:14;8.70;;;7.80;;
1164;SDS011;571;50.930;6.926;2024-03-17T06:41:41;9.80;;;7.90;;
1164;SDS011;571;50.930;6.926;2024-03-17T06:44:08;8.93;;;7.90;;
1164;SDS011;571;50.930;6.926;2024-03-17T06:46:35;8.73;;;7.30;;
1164;SDS011;571;50.930;6.926;2024-03-17T06:49:01;10.23;;;7.37;;
1164;SDS011;571;50.930;6.926;2024-03-17T06:51:28;8.10;;;7.30;;
1164;SDS011;571;50.930;6.926;2024-03-17T06:53:55;10.20;;;7.20;;
1164;SDS011;571;50.930;6.926;2024-03-17T06:56:23;8.83;;;7.57;;
1164;SDS011;571;50.930;6.926;2024-03-17T06:58:50;8.57;;;7.53;;
1164;SDS011;571;50.930;6.926;2024-03-17T07:01:18;9.70;;;7.43;;
1164;SDS011;571;50.930;6.926;2024-03-17T07:03:45;9.17;;;7.30;;
1164;SDS011;571;50.930;6.926;2024-03-17T07:06:12;8.53;;;7.20;;
1164;SDS011;571;50.930;6.926;2024-03-17T07:08:39;9.10;;;8.23;;
1164;SDS011;571;50.930;6.926;2024-03-17T07:11:07;10.10;;;7.90;;
1164;SDS011;571;50.930;6.926;2024-03-17T07:13:36;10.50;;;7.40;;
1164;SDS011;571;50.930;6.926;2024-03-17T07:16:04;9.77;;;7.80;;
1164;SDS011;571;50.930;6.926;2024-03-17T07:18:32;9.27;;;6.37;;
1164;SDS011;571;50.930;6.926;2024-03-17T07:20:59;8.97;;;7.40;;
1164;SDS011;571;50.930;6.926;2024-03-17T07:23:29;9.50;;;7.40;;
1164;SDS011;571;50.930;6.926;2024-03-17T07:25:57;7.53;;;6.73;;
1164;SDS011;571;50.930;6.926;2024-03-17T07:28:24;10.40;;;6.90;;
1164;SDS011;571;50.930;6.926;2024-03-17T07:30:56;8.33;;;5.97;;
1164;SDS011;571;50.930;6.926;2024-03-17T07:33:25;8.97;;;7.43;;
1164;SDS011;571;50.930;6.926;2024-03-17T07:35:53;6.60;;;5.50;;
1164;SDS011;571;50.930;6.926;2024-03-17T07:38:22;6.73;;;6.10;;
1164;SDS011;571;50.930;6.926;2024-03-17T07:40:57;10.40;;;6.60;;
1164;SDS011;571;50.930;6.926;2024-03-17T07:43:26;10.17;;;6.30;;
1164;SDS011;571;50.930;6.926;2024-03-17T07:45:59;7.50;;;5.73;;
1164;SDS011;571;50.930;6.926;2024-03-17T07:48:26;7.50;;;6.70;;
1164;SDS011;571;50.930;6.926;2024-03-17T07:50:54;9.67;;;5.93;;
1164;SDS011;571;50.930;6.926;2024-03-17T07:53:21;6.30;;;5.70;;
1164;SDS011;571;50.930;6.926;2024-03-17T07:55:56;7.30;;;5.10;;
1164;SDS011;571;50.930;6.926;2024-03-17T07:58:23;7.93;;;6.43;;
1164;SDS011;571;50.930;6.926;2024-03-17T08:00:50;6.67;;;6.07;;
1164;SDS011;571;50.930;6.926;2024-03-17T08:03:19;8.07;;;5.77;;
1164;SDS011;571;50.930;6.926;2024-03-17T08:05:47;8.17;;;5.67;;
1164;SDS011;571;50.930;6.926;2024-03-17T08:08:14;7.93;;;5.63;;
1164;SDS011;571;50.930;6.926;2024-03-17T08:10:45;8.57;;;5.80;;
1164;SDS011;571;50.930;6.926;2024-03-17T08:17:20;5.90;;;5.30;;
1164;SDS011;571;50.930;6.926;2024-03-17T08:19:37;8.70;;;6.10;;
1164;SDS011;571;50.930;6.926;2024-03-17T08:26:28;8.40;;;7.17;;
1164;SDS011;571;50.930;6.926;2024-03-17T08:33:01;7.67;;;5.40;;
1164;SDS011;571;50.930;6.926;2024-03-17T08:42:21;6.20;;;5.57;;
1164;SDS011;571;50.930;6.926;2024-03-17T08:44:49;6.10;;;5.50;;
1164;SDS011;571;50.930;6.926;2024-03-17T08:47:21;8.80;;;5.50;;
1164;SDS011;571;50.930;6.926;2024-03-17T08:49:50;5.30;;;4.80;;
1164;SDS011;571;50.930;6.926;2024-03-17T08:52:23;8.20;;;6.00;;
1164;SDS011;571;50.930;6.926;2024-03-17T08:54:52;7.77;;;6.20;;
1164;SDS011;571;50.930;6.926;2024-03-17T08:57:19;8.43;;;5.30;;
1164;SDS011;571;50.930;6.926;2024-03-17T08:59:47;6.70;;;4.40;;
1164;SDS011;571;50.930;6.926;2024-03-17T09:02:14;5.50;;;5.00;;
1164;SDS011;571;50.930;6.926;2024-03-17T09:04:41;6.10;;;5.03;;
1164;SDS011;571;50.930;6.926;2024-03-17T09:07:07;5.50;;;4.90;;
1164;SDS011;571;50.930;6.926;2024-03-17T09:09:34;6.20;;;5.23;;
1164;SDS011;571;50.930;6.926;2024-03-17T09:12:01;6.50;;;5.00;;
1164;SDS011;571;50.930;6.926;2024-03-17T09:14:30;8.73;;;5.17;;
1164;SDS011;571;50.930;6.926;2024-03-17T09:16:56;9.00;;;5.57;;
1164;SDS011;571;50.930;6.926;2024-03-17T09:19:24;5.77;;;5.17;;
1164;SDS011;571;50.930;6.926;2024-03-17T09:21:51;5.13;;;4.63;;
1164;SDS011;571;50.930;6.926;2024-03-17T09:24:18;7.07;;;5.20;;
1164;SDS011;571;50.930;6.926;2024-03-17T09:26:44;8.87;;;4.80;;
1164;SDS011;571;50.930;6.926;2024-03-17T09:29:12;6.07;;;4.67;;
1164;SDS011;571;50.930;6.926;2024-03-17T09:31:41;5.53;;;5.03;;
1164;SDS011;571;50.930;6.926;2024-03-17T09:34:08;5.57;;;5.03;;
1164;SDS011;571;50.930;6.926;2024-03-17T09:36:35;5.70;;;4.80;;
1164;SDS011;571;50.930;6.926;2024-03-17T09:39:02;5.80;;;5.17;;
1164;SDS011;571;50.930;6.926;2024-03-17T09:41:30;7.40;;;4.83;;
1164;SDS011;571;50.930;6.926;2024-03-17T09:43:57;5.80;;;4.40;;
1164;SDS011;571;50.930;6.926;2024-03-17T09:46:24;4.40;;;4.00;;
1164;SDS011;571;50.930;6.926;2024-03-17T09:48:55;6.53;;;3.60;;
1164;SDS011;571;50.930;6.926;2024-03-17T09:51:23;4.03;;;3.63;;
1164;SDS011;571;50.930;6.926;2024-03-17T09:53:51;4.27;;;3.50;;
1164;SDS011;571;50.930;6.926;2024-03-17T09:56:19;4.17;;;3.77;;
1164;SDS011;571;50.930;6.926;2024-03-17T09:58:47;3.30;;;3.00;;
1164;SDS011;571;50.930;6.926;2024-03-17T10:01:14;4.33;;;3.67;;
1164;SDS011;571;50.930;6.926;2024-03-17T10:03:42;3.20;;;2.90;;
1164;SDS011;571;50.930;6.926;2024-03-17T10:06:12;4.70;;;3.40;;
1164;SDS011;571;50.930;6.926;2024-03-17T10:08:43;4.80;;;3.83;;
1164;SDS011;571;50.930;6.926;2024-03-17T10:11:11;4.53;;;3.47;;
1164;SDS011;571;50.930;6.926;2024-03-17T10:13:38;6.97;;;3.73;;
1164;SDS011;571;50.930;6.926;2024-03-17T10:16:05;5.03;;;3.43;;
1164;SDS011;571;50.930;6.926;2024-03-17T10:18:32;7.17;;;5.73;;
1164;SDS011;571;50.930;6.926;2024-03-17T10:20:59;5.40;;;4.10;;
1164;SDS011;571;50.930;6.926;2024-03-17T10:23:28;6.77;;;4.00;;
1164;SDS011;571;50.930;6.926;2024-03-17T10:25:55;5.17;;;3.03;;
1164;SDS011;571;50.930;6.926;2024-03-17T10:28:21;6.70;;;4.50;;
1164;SDS011;571;50.930;6.926;2024-03-17T10:30:58;4.30;;;3.70;;
1164;SDS011;571;50.930;6.926;2024-03-17T10:33:25;4.40;;;3.30;;
1164;SDS011;571;50.930;6.926;2024-03-17T10:35:58;4.03;;;3.63;;
1164;SDS011;571;50.930;6.926;2024-03-17T10:38:27;4.73;;;3.60;;
1164;SDS011;571;50.930;6.926;2024-03-17T10:40:54;7.30;;;4.40;;
1164;SDS011;571;50.930;6.926;2024-03-17T10:43:22;4.03;;;3.60;;
1164;SDS011;571;50.930;6.926;2024-03-17T10:45:51;4.37;;;3.63;;
1164;SDS011;571;50.930;6.926;2024-03-17T10:48:19;3.77;;;3.37;;
1164;SDS011;571;50.930;6.926;2024-03-17T10:50:47;4.53;;;3.40;;
1164;SDS011;571;50.930;6.926;2024-03-17T10:53:16;7.20;;;4.07;;
1164;SDS011;571;50.930;6.926;2024-03-17T10:55:53;4.07;;;3.50;;
1164;SDS011;571;50.930;6.926;2024-03-17T10:58:28;6.27;;;3.67;;
1164;SDS011;571;50.930;6.926;2024-03-17T11:01:00;5.47;;;4.27;;
1164;SDS011;571;50.930;6.926;2024-03-17T11:03:29;3.60;;;3.30;;
1164;SDS011;571;50.930;6.926;2024-03-17T11:06:00;6.33;;;3.87;;
1164;SDS011;571;50.930;6.926;2024-03-17T11:08:30;5.13;;;3.27;;
1164;SDS011;571;50.930;6.926;2024-03-17T11:11:00;6.40;;;3.60;;
1164;SDS011;571;50.930;6.926;2024-03-17T11:13:29;4.90;;;3.60;;
1164;SDS011;571;50.930;6.926;2024-03-17T11:15:57;5.47;;;3.50;;
1164;SDS011;571;50.930;6.926;2024-03-17T11:18:31;5.33;;;3.33;;
1164;SDS011;571;50.930;6.926;2024-03-17T11:21:02;8.10;;;3.63;;
1164;SDS011;571;50.930;6.926;2024-03-17T11:23:35;5.33;;;4.10;;
1164;SDS011;571;50.930;6.926;2024-03-17T11:26:04;4.03;;;3.63;;
1164;SDS011;571;50.930;6.926;2024-03-17T11:31:32;3.70;;;3.37;;
1164;SDS011;571;50.930;6.926;2024-03-17T11:34:00;5.47;;;3.80;;
1164;SDS011;571;50.930;6.926;2024-03-17T11:36:36;4.43;;;3.63;;
1164;SDS011;571;50.930;6.926;2024-03-17T11:39:04;5.97;;;3.73;;
1164;SDS011;571;50.930;6.926;2024-03-17T11:41:42;4.03;;;3.73;;
1164;SDS011;571;50.930;6.926;2024-03-17T11:46:58;4.10;;;3.50;;
1164;SDS011;571;50.930;6.926;2024-03-17T11:49:25;4.23;;;3.83;;
1164;SDS011;571;50.930;6.926;2024-03-17T11:51:54;5.90;;;4.33;;
1164;SDS011;571;50.930;6.926;2024-03-17T11:54:21;4.10;;;3.50;;
1164;SDS011;571;50.930;6.926;2024-03-17T11:56:51;5.50;;;3.80;;
1164;SDS011;571;50.930;6.926;2024-03-17T11:59:17;4.20;;;3.77;;
1164;SDS011;571;50.930;6.926;2024-03-17T12:01:45;4.00;;;3.60;;
1164;SDS011;571;50.930;6.926;2024-03-17T12:04:12;8.10;;;4.47;;
1164;SDS011;571;50.930;6.926;2024-03-17T12:06:41;5.80;;;3.03;;
1164;SDS011;571;50.930;6.926;2024-03-17T12:09:17;5.40;;;3.90;;
1164;SDS011;571;50.930;6.926;2024-03-17T12:11:46;6.13;;;3.90;;
1164;SDS011;571;50.930;6.926;2024-03-17T12:14:16;4.93;;;3.10;;
1164;SDS011;571;50.930;6.926;2024-03-17T12:16:47;5.67;;;4.33;;
1164;SDS011;571;50.930;6.926;2024-03-17T12:19:18;5.23;;;3.90;;
1164;SDS011;571;50.930;6.926;2024-03-17T12:21:44;4.57;;;3.53;;
1164;SDS011;571;50.930;6.926;2024-03-17T12:24:15;4.67;;;3.73;;
1164;SDS011;571;50.930;6.926;2024-03-17T12:26:43;4.90;;;3.83;;
1164;SDS011;571;50.930;6.926;2024-03-17T12:29:24;4.40;;;3.50;;
1164;SDS011;571;50.930;6.926;2024-03-17T12:31:52;4.70;;;4.20;;
1164;SDS011;571;50.930;6.926;2024-03-17T12:34:21;6.37;;;4.20;;
1164;SDS011;571;50.930;6.926;2024-03-17T12:36:49;3.63;;;3.20;;
1164;SDS011;571;50.930;6.926;2024-03-17T12:39:18;4.60;;;4.17;;
1164;SDS011;571;50.930;6.926;2024-03-17T12:41:45;3.77;;;3.40;;
1164;SDS011;571;50.930;6.926;2024-03-17T12:44:21;3.03;;;2.67;;
1164;SDS011;571;50.930;6.926;2024-03-17T12:46:53;3.87;;;3.50;;
1164;SDS011;571;50.930;6.926;2024-03-17T12:49:20;3.77;;;2.90;;
1164;SDS011;571;50.930;6.926;2024-03-17T12:51:46;4.10;;;3.43;;
1164;SDS011;571;50.930;6.926;2024-03-17T12:54:14;6.13;;;4.07;;
1164;SDS011;571;50.930;6.926;2024-03-17T12:56:42;3.70;;;3.40;;
1164;SDS011;571;50.930;6.926;2024-03-17T12:59:36;8.13;;;4.43;;
1164;SDS011;571;50.930;6.926;2024-03-17T13:02:22;4.87;;;4.17;;
1164;SDS011;571;50.930;6.926;2024-03-17T13:05:04;5.13;;;4.17;;
1164;SDS011;571;50.930;6.926;2024-03-17T13:07:41;3.67;;;3.20;;
1164;SDS011;571;50.930;6.926;2024-03-17T13:10:11;3.07;;;2.77;;
1164;SDS011;571;50.930;6.926;2024-03-17T13:12:39;5.20;;;3.53;;
1164;SDS011;571;50.930;6.926;2024-03-17T13:15:06;3.93;;;2.43;;
1164;SDS011;571;50.930;6.926;2024-03-17T13:17:36;4.40;;;3.73;;
1164;SDS011;571;50.930;6.926;2024-03-17T13:20:03;5.00;;;3.90;;
1164;SDS011;571;50.930;6.926;2024-03-17T13:22:33;4.57;;;3.53;;
1164;SDS011;571;50.930;6.926;2024-03-17T13:25:00;3.70;;;3.13;;
1164;SDS011;571;50.930;6.926;2024-03-17T13:27:27;6.67;;;3.30;;
1164;SDS011;571;50.930;6.926;2024-03-17T13:40:45;3.83;;;3.43;;
1164;SDS011;571;50.930;6.926;2024-03-17T13:43:38;3.57;;;3.27;;
1164;SDS011;571;50.930;6.926;2024-03-17T13:46:11;6.93;;;3.43;;
1164;SDS011;571;50.930;6.926;2024-03-17T13:48:40;5.83;;;3.50;;
1164;SDS011;571;50.930;6.926;2024-03-17T13:51:18;5.33;;;3.43;;
1164;SDS011;571;50.930;6.926;2024-03-17T13:54:06;3.03;;;2.77;;
1164;SDS011;571;50.930;6.926;2024-03-17T13:56:57;4.40;;;3.20;;
1164;SDS011;571;50.930;6.926;2024-03-17T13:59:29;4.47;;;3.20;;
1164;SDS011;571;50.930;6.926;2024-03-17T14:02:20;4.20;;;3.20;;
1164;SDS011;571;50.930;6.926;2024-03-17T14:05:03;5.00;;;4.00;;
1164;SDS011;571;50.930;6.926;2024-03-17T14:10:38;5.93;;;2.90;;
1164;SDS011;571;50.930;6.926;2024-03-17T14:13:11;5.10;;;3.50;;
1164;SDS011;571;50.930;6.926;2024-03-17T14:15:38;3.63;;;3.30;;
1164;SDS011;571;50.930;6.926;2024-03-17T14:18:05;3.77;;;2.80;;
1164;SDS011;571;50.930;6.926;2024-03-17T14:20:37;5.20;;;3.20;;
1164;SDS011;571;50.930;6.926;2024-03-17T14:23:04;4.70;;;3.73;;
1164;SDS011;571;50.930;6.926;2024-03-17T14:25:36;6.10;;;3.13;;
1164;SDS011;571;50.930;6.926;2024-03-17T14:28:04;2.80;;;2.60;;
1164;SDS011;571;50.930;6.926;2024-03-17T14:30:34;4.47;;;3.23;;
1164;SDS011;571;50.930;6.926;2024-03-17T14:33:01;5.53;;;3.53;;
1164;SDS011;571;50.930;6.926;2024-03-17T14:35:32;3.80;;;3.40;;
1164;SDS011;571;50.930;6.926;2024-03-17T14:38:08;3.63;;;3.33;;
1164;SDS011;571;50.930;6.926;2024-03-17T14:40:41;3.60;;;2.87;;
1164;SDS011;571;50.930;6.926;2024-03-17T14:43:30;3.97;;;2.77;;
1164;SDS011;571;50.930;6.926;2024-03-17T14:46:05;5.20;;;3.00;;
1164;SDS011;571;50.930;6.926;2024-03-17T14:48:40;3.57;;;2.53;;
1164;SDS011;571;50.930;6.926;2024-03-17T14:51:16;3.77;;;3.33;;
1164;SDS011;571;50.930;6.926;2024-03-17T14:53:43;9.27;;;3.97;;
1164;SDS011;571;50.930;6.926;2024-03-17T14:56:16;5.53;;;3.00;;
1164;SDS011;571;50.930;6.926;2024-03-17T14:58:43;3.40;;;2.93;;
1164;SDS011;571;50.930;6.926;2024-03-17T15:01:12;4.53;;;3.30;;
1164;SDS011;571;50.930;6.926;2024-03-17T15:03:42;4.10;;;3.00;;
1164;SDS011;571;50.930;6.926;2024-03-17T15:06:10;6.53;;;3.17;;
1164;SDS011;571;50.930;6.926;2024-03-17T15:08:43;4.37;;;3.60;;
1164;SDS011;571;50.930;6.926;2024-03-17T15:11:10;4.80;;;3.80;;
1164;SDS011;571;50.930;6.926;2024-03-17T15:13:40;5.13;;;3.87;;
1164;SDS011;571;50.930;6.926;2024-03-17T15:16:09;6.10;;;3.30;;
1164;SDS011;571;50.930;6.926;2024-03-17T15:18:38;5.30;;;2.90;;
1164;SDS011;571;50.930;6.926;2024-03-17T15:21:09;4.20;;;3.50;;
1164;SDS011;571;50.930;6.926;2024-03-17T15:23:39;3.00;;;2.70;;
1164;SDS011;571;50.930;6.926;2024-03-17T15:26:06;4.93;;;3.47;;
1164;SDS011;571;50.930;6.926;2024-03-17T15:28:42;3.40;;;3.07;;
1164;SDS011;571;50.930;6.926;2024-03-17T15:31:13;4.27;;;3.67;;
1164;SDS011;571;50.930;6.926;2024-03-17T15:33:41;3.50;;;3.20;;
1164;SDS011;571;50.930;6.926;2024-03-17T15:36:14;5.40;;;3.53;;
1164;SDS011;571;50.930;6.926;2024-03-17T15:39:13;3.30;;;3.00;;
1164;SDS011;571;50.930;6.926;2024-03-17T15:41:40;5.27;;;3.93;;
1164;SDS011;571;50.930;6.926;2024-03-17T15:44:08;5.60;;;3.30;;
1164;SDS011;571;50.930;6.926;2024-03-17T15:46:35;4.70;;;3.17;;
1164;SDS011;571;50.930;6.926;2024-03-17T15:49:04;7.93;;;3.27;;
1164;SDS011;571;50.930;6.926;2024-03-17T15:51:30;8.00;;;3.43;;
1164;SDS011;571;50.930;6.926;2024-03-17T15:53:57;4.00;;;3.20;;
1164;SDS011;571;50.930;6.926;2024-03-17T15:56:24;4.80;;;3.60;;
1164;SDS011;571;50.930;6.926;2024-03-17T15:58:51;4.20;;;3.23;;
1164;SDS011;571;50.930;6.926;2024-03-17T16:01:18;5.30;;;3.57;;
1164;SDS011;571;50.930;6.926;2024-03-17T16:03:45;5.17;;;3.00;;
1164;SDS011;571;50.930;6.926;2024-03-17T16:06:15;4.70;;;3.10;;
1164;SDS011;571;50.930;6.926;2024-03-17T16:08:45;3.83;;;3.53;;
1164;SDS011;571;50.930;6.926;2024-03-17T16:11:13;4.30;;;3.43;;
1164;SDS011;571;50.930;6.926;2024-03-17T16:13:42;4.87;;;3.50;;
1164;SDS011;571;50.930;6.926;2024-03-17T16:16:14;5.33;;;3.60;;
1164;SDS011;571;50.930;6.926;2024-03-17T16:18:42;4.53;;;3.37;;
1164;SDS011;571;50.930;6.926;2024-03-17T16:21:10;4.23;;;3.20;;
1164;SDS011;571;50.930;6.926;2024-03-17T16:23:44;4.97;;;3.70;;
1164;SDS011;571;50.930;6.926;2024-03-17T16:26:14;4.47;;;3.70;;
1164;SDS011;571;50.930;6.926;2024-03-17T16:28:41;5.43;;;3.70;;
1164;SDS011;571;50.930;6.926;2024-03-17T16:31:08;3.90;;;3.50;;
1164;SDS011;571;50.930;6.926;2024-03-17T16:33:35;3.80;;;3.40;;
1164;SDS011;571;50.930;6.926;2024-03-17T16:36:03;5.80;;;3.80;;
1164;SDS011;571;50.930;6.926;2024-03-17T16:38:30;4.07;;;3.00;;
1164;SDS011;571;50.930;6.926;2024-03-17T17:05:54;9.53;;;3.50;;
1164;SDS011;571;50.930;6.926;2024-03-17T17:08:21;5.63;;;3.93;;
1164;SDS011;571;50.930;6.926;2024-03-17T17:10:48;3.80;;;3.40;;
1164;SDS011;571;50.930;6.926;2024-03-17T17:13:14;4.83;;;3.60;;
1164;SDS011;571;50.930;6.926;2024-03-17T17:15:41;4.43;;;3.60;;
1164;SDS011;571;50.930;6.926;2024-03-17T17:18:45;4.57;;;4.17;;
1164;SDS011;571;50.930;6.926;2024-03-17T17:21:16;4.90;;;3.70;;
1164;SDS011;571;50.930;6.926;2024-03-17T17:23:43;4.20;;;3.70;;
1164;SDS011;571;50.930;6.926;2024-03-17T17:26:13;5.50;;;4.57;;
1164;SDS011;571;50.930;6.926;2024-03-17T17:28:41;4.77;;;4.30;;
1164;SDS011;571;50.930;6.926;2024-03-17T17:31:09;5.50;;;5.00;;
1164;SDS011;571;50.930;6.926;2024-03-17T17:33:36;4.60;;;4.20;;
1164;SDS011;571;50.930;6.926;2024-03-17T17:36:06;4.87;;;3.87;;
1164;SDS011;571;50.930;6.926;2024-03-17T17:38:35;6.17;;;3.60;;
1164;SDS011;571;50.930;6.926;2024-03-17T17:41:03;7.00;;;3.63;;
1164;SDS011;571;50.930;6.926;2024-03-17T17:43:34;4.57;;;3.80;;
1164;SDS011;571;50.930;6.926;2024-03-17T17:46:04;6.43;;;3.43;;
1164;SDS011;571;50.930;6.926;2024-03-17T17:48:31;5.77;;;3.30;;
1164;SDS011;571;50.930;6.926;2024-03-17T17:51:00;4.07;;;3.23;;
1164;SDS011;571;50.930;6.926;2024-03-17T17:53:28;3.83;;;2.90;;
1164;SDS011;571;50.930;6.926;2024-03-17T17:55:56;2.40;;;2.20;;
1164;SDS011;571;50.930;6.926;2024-03-17T17:58:25;5.30;;;2.93;;
1164;SDS011;571;50.930;6.926;2024-03-17T18:00:57;4.27;;;3.20;;
1164;SDS011;571;50.930;6.926;2024-03-17T18:03:24;4.60;;;2.40;;
1164;SDS011;571;50.930;6.926;2024-03-17T18:05:51;5.73;;;2.80;;
1164;SDS011;571;50.930;6.926;2024-03-17T18:08:19;4.60;;;2.50;;
1164;SDS011;571;50.930;6.926;2024-03-17T18:10:46;4.00;;;2.13;;
1164;SDS011;571;50.930;6.926;2024-03-17T18:13:14;3.27;;;2.20;;
1164;SDS011;571;50.930;6.926;2024-03-17T18:15:40;5.50;;;3.13;;
1164;SDS011;571;50.930;6.926;2024-03-17T18:18:08;3.50;;;2.67;;
1164;SDS011;571;50.930;6.926;2024-03-17T18:20:35;4.97;;;2.20;;
1164;SDS011;571;50.930;6.926;2024-03-17T18:23:02;3.20;;;2.07;;
1164;SDS011;571;50.930;6.926;2024-03-17T18:25:29;2.90;;;2.57;;
1164;SDS011;571;50.930;6.926;2024-03-17T18:27:58;4.00;;;2.70;;
1164;SDS011;571;50.930;6.926;2024-03-17T18:30:27;3.13;;;2.33;;
1164;SDS011;571;50.930;6.926;2024-03-17T18:32:55;6.93;;;3.40;;
1164;SDS011;571;50.930;6.926;2024-03-17T18:35:22;3.97;;;2.80;;
1164;SDS011;571;50.930;6.926;2024-03-17T18:37:49;4.93;;;3.27;;
1164;SDS011;571;50.930;6.926;2024-03-17T18:40:16;3.53;;;2.80;;
1164;SDS011;571;50.930;6.926;2024-03-17T18:42:46;3.57;;;2.70;;
1164;SDS011;571;50.930;6.926;2024-03-17T18:45:15;8.13;;;3.47;;
1164;SDS011;571;50.930;6.926;2024-03-17T18:48:02;4.97;;;2.60;;
1164;SDS011;571;50.930;6.926;2024-03-17T18:50:32;3.70;;;2.17;;
1164;SDS011;571;50.930;6.926;2024-03-17T18:52:59;3.07;;;2.23;;
1164;SDS011;571;50.930;6.926;2024-03-17T18:55:26;5.73;;;2.00;;
1164;SDS011;571;50.930;6.926;2024-03-17T18:57:52;4.80;;;2.97;;
1164;SDS011;571;50.930;6.926;2024-03-17T19:00:19;6.93;;;3.30;;
1164;SDS011;571;50.930;6.926;2024-03-17T19:02:46;8.63;;;4.27;;
1164;SDS011;571;50.930;6.926;2024-03-17T19:05:15;4.93;;;3.33;;
1164;SDS011;571;50.930;6.926;2024-03-17T19:07:42;7.63;;;5.27;;
1164;SDS011;571;50.930;6.926;2024-03-17T19:10:10;5.90;;;4.83;;
1164;SDS011;571;50.930;6.926;2024-03-17T19:12:38;5.60;;;3.27;;
1164;SDS011;571;50.930;6.926;2024-03-17T19:15:05;6.10;;;3.07;;
1164;SDS011;571;50.930;6.926;2024-03-17T19:17:32;8.83;;;3.03;;
1164;SDS011;571;50.930;6.926;2024-03-17T19:20:00;7.43;;;3.27;;
1164;SDS011;571;50.930;6.926;2024-03-17T19:22:33;6.47;;;3.57;;
1164;SDS011;571;50.930;6.926;2024-03-17T19:25:04;4.60;;;2.90;;
1164;SDS011;571;50.930;6.926;2024-03-17T19:27:32;3.90;;;2.90;;
1164;SDS011;571;50.930;6.926;2024-03-17T19:29:59;4.13;;;3.60;;
1164;SDS011;571;50.930;6.926;2024-03-17T19:32:29;4.83;;;3.27;;
1164;SDS011;571;50.930;6.926;2024-03-17T19:34:55;6.20;;;3.00;;
1164;SDS011;571;50.930;6.926;2024-03-17T19:37:22;5.53;;;3.53;;
1164;SDS011;571;50.930;6.926;2024-03-17T19:39:50;4.83;;;3.87;;
1164;SDS011;571;50.930;6.926;2024-03-17T19:42:17;3.23;;;2.90;;
1164;SDS011;571;50.930;6.926;2024-03-17T19:44:46;3.93;;;2.77;;
1164;SDS011;571;50.930;6.926;2024-03-17T19:47:13;3.97;;;3.23;;
1164;SDS011;571;50.930;6.926;2024-03-17T19:49:43;3.30;;;3.00;;
1164;SDS011;571;50.930;6.926;2024-03-17T19:52:09;3.53;;;2.80;;
1164;SDS011;571;50.930;6.926;2024-03-17T19:54:39;7.00;;;3.47;;
1164;SDS011;571;50.930;6.926;2024-03-17T19:57:07;6.30;;;3.47;;
1164;SDS011;571;50.930;6.926;2024-03-17T19:59:35;7.13;;;2.97;;
1164;SDS011;571;50.930;6.926;2024-03-17T20:02:02;5.00;;;3.50;;
1164;SDS011;571;50.930;6.926;2024-03-17T20:04:28;5.40;;;3.20;;
1164;SDS011;571;50.930;6.926;2024-03-17T20:06:55;5.50;;;3.50;;
1164;SDS011;571;50.930;6.926;2024-03-17T20:09:23;4.33;;;3.93;;
1164;SDS011;571;50.930;6.926;2024-03-17T20:11:52;7.10;;;4.07;;
1164;SDS011;571;50.930;6.926;2024-03-17T20:14:23;5.13;;;3.87;;
1164;SDS011;571;50.930;6.926;2024-03-17T20:16:49;4.80;;;3.80;;
1164;SDS011;571;50.930;6.926;2024-03-17T20:19:23;5.27;;;3.60;;
1164;SDS011;571;50.930;6.926;2024-03-17T20:21:56;5.83;;;3.73;;
1164;SDS011;571;50.930;6.926;2024-03-17T20:24:22;5.70;;;4.00;;
1164;SDS011;571;50.930;6.926;2024-03-17T20:26:49;4.13;;;3.70;;
1164;SDS011;571;50.930;6.926;2024-03-17T20:29:16;8.93;;;5.13;;
1164;SDS011;571;50.930;6.926;2024-03-17T20:31:45;4.93;;;4.40;;